Edwards Creek Valley, Nevada Weather observations

Data are for observation ending at time listed.
 Day   Time    Ave.   Ave.  Ave.  Vector   Max.   Stn.    Total    Solar   Ave.  
  of    of     Air    Rel.  Wind   Wind    Wind   Baro.  Precip.   Rad.    Soil  
Year   Day     Temp.  Hum.  Speed  Dir.    Gust   Pres.                    Temp. 
2015   (PST)    F      %     mph   deg.    mph     mb.     in.     W/m2     F   
------------------------------------------------------------------------------
 145   18:30   53.3    82    5.7   125      9.6    846     0.00      56     64.4
 145   18:40   53.8    80    4.1   148      6.1    846     0.00      51     64.1
 145   18:50   54.5    75    3.1   187      5.9    846     0.00      21     63.9
 145   19:00   52.4    84    6.4   339      9.5    846     0.00      14     63.7
 145   19:10   51.4    87    5.4   342      7.4    846     0.00       4     63.4
 145   19:20   51.3    89    4.5   347      6.9    846     0.00       1     63.2
 145   19:30   51.4    88    3.2   328      5.6    846     0.00       0     62.9
 145   19:40   51.4    88    2.4   332      3.7    846     0.00       0     62.6
 145   19:50   51.4    88    1.1   339      2.2    846     0.00       0     62.4
 145   20:00   51.3    88    0.6    42      1.5    846     0.00       0     62.2
 145   20:10   51.0    89    2.1   144      2.7    846     0.00       0     62.0
 145   20:20   50.4    90    1.0   112      1.6    847     0.00       0     61.8
 145   20:30   50.0    91    2.2   127      3.8    846     0.00       0     61.5
 145   20:40   49.6    91    2.7   111      3.6    846     0.00       0     61.3
 145   20:50   49.5    92    1.4   154      1.9    846     0.00       0     61.0
 145   21:00   49.1    92    2.1   168      3.1    846     0.00       0     60.7
 145   21:10   48.3    92    2.0   158      2.9    847     0.00       0     60.5
 145   21:20   48.2    93    2.6   151      3.0    847     0.00       0     60.2
 145   21:30   48.1    93    1.6   216      2.6    847     0.00       0     60.0
 145   21:40   48.4    93    1.7   207      2.6    846     0.00       0     59.8
 145   21:50   48.3    93    1.7   212      2.6    847     0.00       0     59.6
 145   22:00   48.2    93    2.8   214      4.2    847     0.00       0     59.4
 145   22:10   48.1    93    2.8   198      3.9    847     0.00       0     59.2
 145   22:20   47.9    93    2.7   203      3.9    847     0.00       0     59.1
 145   22:30   47.9    93    2.2   208      4.1    847     0.00       0     58.9
 145   22:40   47.9    93    2.4   180      4.0    847     0.00       0     58.7
 145   22:50   48.1    93    1.4   160      2.2    847     0.00       0     58.5
 145   23:00   48.3    93    1.6   185      2.4    847     0.00       0     58.4
 145   23:10   48.4    93    1.5   202      2.8    847     0.00       0     58.3
 145   23:20   48.4    93    1.7   189      3.3    847     0.00       0     58.2
 145   23:30   48.3    92    2.3   173      3.7    847     0.00       0     58.1
 145   23:40   48.3    92    1.7   182      2.8    847     0.00       0     58.0
 145   23:50   48.4    92    1.8   196      3.1    847     0.00       0     57.9
 146    0:00   48.5    92    2.0   193      3.1    846     0.00       0     57.8
 146    0:10   48.5    92    2.6   189      3.8    846     0.00       0     57.7
 146    0:20   48.4    93    1.4   173      2.4    846     0.00       0     57.5
 146    0:30   47.9    92    2.7   181      3.3    846     0.00       0     57.4
 146    0:40   47.4    93    1.5   302      4.3    846     0.00       0     57.3
 146    0:50   46.9    93    1.4   245      2.6    846     0.00       0     57.1
 146    1:00   46.5    93    1.5   350      3.0    846     0.00       0     57.0
 146    1:10   46.4    94    0.4    97      1.5    846     0.00       0     56.8
 146    1:20   46.7    94    0.9   259      1.9    846     0.00       0     56.6
 146    1:30   47.1    94    2.1   257      4.1    846     0.00       0     56.4
 146    1:40   46.9    94    2.1   193      2.9    846     0.00       0     56.4
 146    1:50   46.1    94    1.6   190      2.6    846     0.00       0     56.2
 146    2:00   45.6    94    0.8   256      2.7    846     0.00       0     56.1
 146    2:10   45.0    94    2.8   266      4.7    847     0.00       0     56.0
 146    2:20   44.5    94    1.8   215      2.5    846     0.00       0     55.8
 146    2:30   44.2    94    2.2   189      3.2    846     0.00       0     55.6
 146    2:40   43.7    94    1.9   176      3.1    846     0.00       0     55.4
 146    2:50   43.3    94    2.0   136      3.5    846     0.00       0     55.2
 146    3:00   43.4    95    3.3   132      5.0    846     0.00       0     55.0
 146    3:10   43.3    94    3.0   127      4.0    846     0.00       0     54.9
 146    3:20   43.3    95    0.9   160      2.7    846     0.00       0     54.7
 146    3:30   43.3    95    1.2   166      2.7    846     0.00       0     54.5
 146    3:40   43.3    94    2.2   136      5.5    846     0.00       0     54.3
 146    3:50   42.5    95    1.6   352      4.7    846     0.00       0     54.1
 146    4:00   42.9    95    1.5   314      2.6    847     0.00       0     54.0
 146    4:10   41.6    94    2.3   301      3.7    847     0.00       0     53.8
 146    4:20   40.6    95    1.8   284      3.5    846     0.00       1     53.6
 146    4:30   40.3    95    2.3   169      3.5    846     0.00       2     53.5
 146    4:40   40.2    95    1.0   188      3.2    846     0.00       6     53.3
 146    4:50   40.5    96    1.8   196      3.0    846     0.00      17     53.1
 146    5:00   41.6    96    1.9   209      3.7    846     0.00      44     52.9
 146    5:10   42.4    96    1.3   305      3.7    846     0.00      72     52.8
 146    5:20   42.7    96    2.2   282      3.9    846     0.00      96     52.7
 146    5:30   42.5    95    1.4   289      3.1    845     0.00      87     52.7
 146    5:40   43.3    96    0.1   302      1.5    846     0.00     108     52.7
 146    5:50   44.7    96    0.0   156      0.6    846     0.00     129     52.8
 146    6:00   45.7    96    0.3   359      1.1    847     0.00     170     52.8
 146    6:10   46.3    96    0.6    19      1.6    847     0.00     231     53.0
 146    6:20   47.7    95    1.6     9      3.1    847     0.00     271     53.1
 146    6:30   48.8    94    1.8    47      3.3    847     0.00     311     53.3
 146    6:40   49.9    93    2.1    70      3.5    847     0.00     345     53.6
 146    6:50   51.0    89    1.6    66      2.7    847     0.00     376     53.9
 146    7:00   51.2    86    2.7    13      4.7    847     0.00     405     54.4
 146    7:10   51.2    88    1.9   356      3.7    847     0.00     440     54.8
 146    7:20   51.8    84    2.3   304      3.6    847     0.00     471     55.3
 146    7:30   52.5    80    1.9   339      3.7    847     0.00     503     55.8
 146    7:40   54.3    75    1.7    22      4.0    847     0.00     537     56.4
 146    7:50   55.1    72    2.8    32      4.7    847     0.00     571     56.9
 146    8:00   55.7    70    3.4    28      5.4    847     0.00     596     57.5
 146    8:10   56.3    68    2.6   355      5.1    847     0.00     622     58.2
 146    8:20   57.9    61    1.5    37      3.7    847     0.00     652     58.9
 146    8:30   58.3    62    2.2   326      5.5    847     0.00     680     59.7
 146    8:40   58.9    59    2.7   322      4.2    847     0.00     706     60.4
 146    8:50   59.4    59    2.6   328      4.7    847     0.00     733     61.2
 146    9:00   60.3    59    2.2    40      8.2    847     0.00     757     62.0
 146    9:10   61.7    58    1.6   358      5.6    847     0.00     782     62.7
 146    9:20   62.7    57    2.1    83      4.8    847     0.00     805     63.6
 146    9:30   63.8    56    1.9    76      4.4    847     0.00     830     64.4
 146    9:40   64.1    52    2.4    95      5.0    847     0.00     854     65.2
 146    9:50   64.7    47    1.2   116      3.4    847     0.00     881     66.0
 146   10:00   64.9    50    3.7    54      7.5    847     0.00     905     66.8
 146   10:10   65.0    47    2.2    52      9.0    847     0.00     981     67.6
 146   10:20   65.5    50    5.5    34      7.8    847     0.00     901     68.5
 146   10:30   64.7    46    4.3   250     10.7    847     0.00     247     69.4
 146   10:40   64.4    44    5.4   253     10.6    847     0.00     309     69.9
 146   10:50   64.2    41    2.4   259      6.2    847     0.00     433     69.9
 146   11:00   66.3    41    5.8   193     14.0    846     0.00     806     69.7
 146   11:10   67.4    42    7.8   199     14.2    846     0.00    1020     69.7
 146   11:20   68.2    41    9.0   182     16.5    846     0.00    1030     70.0
 146   11:30   68.8    40    9.7   187     16.1    846     0.00     951     70.6
 146   11:40   69.2    38    7.5   209     15.2    846     0.00    1050     71.3
 146   11:50   69.1    37    8.7   185     13.9    846     0.00    1084     71.9
 146   12:00   69.4    38   10.4   191     17.6    846     0.00    1063     72.5
 146   12:10   68.1    44    8.4   257     14.5    846     0.00    1053     73.1
 146   12:20   68.8    36    6.7   231     14.6    846     0.00    1057     73.8
 146   12:30   69.9    32    8.3   208     15.1    846     0.00    1038     74.5
 146   12:40   70.4    32    7.5   214     16.6    846     0.00     981     75.2
 146   12:50   70.3    32    8.3   204     13.9    846     0.00     983     75.8
 146   13:00   70.0    29    6.9   199     12.6    846     0.00     989     76.4
 146   13:10   70.5    30    7.3   215     14.2    846     0.00     980     76.9
 146   13:20   71.3    28    8.8   195     15.7    846     0.00     973     77.4
 146   13:30   71.0    28    8.3   206     13.2    846     0.00     952     77.8
 146   13:40   71.2    28    7.1   190     13.8    846     0.00     919     78.2
 146   13:50   71.1    28    6.7   205     11.9    845     0.00     886     78.6
 146   14:00   71.4    29    9.2   228     15.8    845     0.00     865     78.9
 146   14:10   71.5    27    7.4   234     11.2    845     0.00     850     79.2
 146   14:20   71.9    29    8.2   212     15.1    845     0.00     831     79.4
 146   14:30   71.9    28    6.0   230     14.4    845     0.00     811     79.6
 146   14:40   72.2    27    9.0   225     16.1    845     0.00     801     79.7
 146   14:50   72.1    27    8.1   211     14.1    845     0.00     768     79.8
 146   15:00   72.2    26    8.2   200     15.1    845     0.00     739     79.9
 146   15:10   71.9    26   10.2   201     15.6    845     0.00     727     79.9
 146   15:20   72.2    25    6.7   222     12.3    845     0.00     708     79.9
 146   15:30   72.3    24    6.8   228     13.0    845     0.00     683     79.8
 146   15:40   72.8    25    6.5   239     11.6    845     0.00     653     79.8
 146   15:50   73.0    24    6.3   238     12.0    845     0.00     627     79.7
 146   16:00   72.7    22    5.9   235     12.6    846     0.00     590     79.7
 146   16:10   72.7    22    5.3   218     12.9    846     0.00     548     79.6
 146   16:20   72.8    24    6.5   227     11.6    846     0.00     508     79.5
 146   16:30   72.4    23    8.3   207     14.2    845     0.00     430     79.3
 146   16:40   71.9    23    5.1   237     10.1    845     0.00     410     79.0
 146   16:50   72.1    24    6.6   216     12.2    845     0.00     427     78.7
 146   17:00   72.2    24    4.7   208      9.7    845     0.00     382     78.4
 146   17:10   72.2    25    6.2   268     10.8    845     0.00     342     78.1
 146   17:20   71.3    26    6.8   304     12.1    845     0.00     305     77.8
 146   17:30   71.0    27    7.6   309     12.3    845     0.00     275     77.5
 146   17:40   70.5    29    7.7   308     10.4    845     0.00     242     77.2
 146   17:50   70.3    29    5.4   311      8.3    845     0.00     209     76.8
 146   18:00   70.4    30    4.8   322      7.6    845     0.00     178     76.4
 146   18:10   69.8    31    5.3   333      8.1    846     0.00     149     76.1
 146   18:20   69.1    33    5.4   340      7.2    846     0.00     123     75.7

Return to Carson Sink graphs page.


Western Regional Climate Center,wrcc@dri.edu